sensor_id;sensor_type;location;lat;lon;timestamp;pressure;altitude;pressure_sealevel;temperature;humidity
13612;BME280;6877;51.436;6.774;2022-08-02T00:01:54;101540.56;;;14.96;72.72
13612;BME280;6877;51.436;6.774;2022-08-02T00:04:25;101543.28;;;14.93;72.62
13612;BME280;6877;51.436;6.774;2022-08-02T00:06:57;101539.00;;;14.89;72.74
13612;BME280;6877;51.436;6.774;2022-08-02T00:09:28;101532.88;;;14.87;72.88
13612;BME280;6877;51.436;6.774;2022-08-02T00:12:00;101528.53;;;14.84;72.92
13612;BME280;6877;51.436;6.774;2022-08-02T00:14:31;101532.16;;;14.82;72.87
13612;BME280;6877;51.436;6.774;2022-08-02T00:17:04;101528.66;;;14.80;73.48
13612;BME280;6877;51.436;6.774;2022-08-02T00:19:35;101525.03;;;14.86;73.64
13612;BME280;6877;51.436;6.774;2022-08-02T00:22:07;101526.75;;;14.87;73.42
13612;BME280;6877;51.436;6.774;2022-08-02T00:24:38;101525.91;;;14.84;73.29
13612;BME280;6877;51.436;6.774;2022-08-02T00:27:10;101529.50;;;14.82;73.46
13612;BME280;6877;51.436;6.774;2022-08-02T00:29:41;101526.06;;;14.78;73.41
13612;BME280;6877;51.436;6.774;2022-08-02T00:32:13;101515.63;;;14.75;73.32
13612;BME280;6877;51.436;6.774;2022-08-02T00:34:44;101509.47;;;14.75;73.56
13612;BME280;6877;51.436;6.774;2022-08-02T00:37:19;101513.00;;;14.74;73.58
13612;BME280;6877;51.436;6.774;2022-08-02T00:39:50;101514.78;;;14.72;73.39
13612;BME280;6877;51.436;6.774;2022-08-02T00:42:21;101520.13;;;14.70;74.02
13612;BME280;6877;51.436;6.774;2022-08-02T00:44:53;101519.19;;;14.71;74.08
13612;BME280;6877;51.436;6.774;2022-08-02T00:47:24;101522.69;;;14.73;73.86
13612;BME280;6877;51.436;6.774;2022-08-02T00:49:56;101522.69;;;14.72;73.95
13612;BME280;6877;51.436;6.774;2022-08-02T00:52:27;101514.88;;;14.69;73.67
13612;BME280;6877;51.436;6.774;2022-08-02T00:54:59;101514.06;;;14.67;73.81
13612;BME280;6877;51.436;6.774;2022-08-02T00:57:30;101522.84;;;14.66;73.87
13612;BME280;6877;51.436;6.774;2022-08-02T01:00:03;101520.19;;;14.67;74.10
13612;BME280;6877;51.436;6.774;2022-08-02T01:02:35;101534.22;;;14.68;73.99
13612;BME280;6877;51.436;6.774;2022-08-02T01:05:06;101533.34;;;14.67;74.36
13612;BME280;6877;51.436;6.774;2022-08-02T01:07:38;101519.31;;;14.67;74.34
13612;BME280;6877;51.436;6.774;2022-08-02T01:10:05;101522.81;;;14.67;74.18
13612;BME280;6877;51.436;6.774;2022-08-02T01:12:37;101515.84;;;14.65;74.36
13612;BME280;6877;51.436;6.774;2022-08-02T01:15:10;101516.75;;;14.64;74.56
13612;BME280;6877;51.436;6.774;2022-08-02T01:17:55;101510.56;;;14.66;75.20
13612;BME280;6877;51.436;6.774;2022-08-02T01:31:41;101511.56;;;14.60;75.63
13612;BME280;6877;51.436;6.774;2022-08-02T01:34:23;101505.44;;;14.60;75.93
13612;BME280;6877;51.436;6.774;2022-08-02T01:37:08;101493.19;;;14.57;75.55
13612;BME280;6877;51.436;6.774;2022-08-02T01:39:37;101498.47;;;14.56;75.73
13612;BME280;6877;51.436;6.774;2022-08-02T01:42:11;101495.03;;;14.54;76.00
13612;BME280;6877;51.436;6.774;2022-08-02T01:44:44;101490.63;;;14.54;75.97
13612;BME280;6877;51.436;6.774;2022-08-02T01:47:23;101488.91;;;14.53;75.98
13612;BME280;6877;51.436;6.774;2022-08-02T01:49:57;101490.63;;;14.54;76.03
13612;BME280;6877;51.436;6.774;2022-08-02T01:52:32;101488.06;;;14.51;76.03
13612;BME280;6877;51.436;6.774;2022-08-02T01:55:16;101485.41;;;14.50;76.80
13612;BME280;6877;51.436;6.774;2022-08-02T01:57:58;101485.41;;;14.50;77.23
13612;BME280;6877;51.436;6.774;2022-08-02T02:00:29;101482.00;;;14.46;76.46
13612;BME280;6877;51.436;6.774;2022-08-02T02:03:04;101490.00;;;14.42;76.83
13612;BME280;6877;51.436;6.774;2022-08-02T02:05:37;101484.91;;;14.34;76.74
13612;BME280;6877;51.436;6.774;2022-08-02T02:08:10;101485.94;;;14.27;77.22
13612;BME280;6877;51.436;6.774;2022-08-02T02:10:44;101483.44;;;14.22;77.36
13612;BME280;6877;51.436;6.774;2022-08-02T02:13:17;101483.59;;;14.14;77.28
13612;BME280;6877;51.436;6.774;2022-08-02T02:15:50;101481.94;;;14.09;77.83
13612;BME280;6877;51.436;6.774;2022-08-02T02:18:23;101484.69;;;14.04;78.09
13612;BME280;6877;51.436;6.774;2022-08-02T02:20:57;101484.69;;;14.03;78.68
13612;BME280;6877;51.436;6.774;2022-08-02T02:23:28;101476.00;;;13.99;78.88
13612;BME280;6877;51.436;6.774;2022-08-02T02:26:03;101486.59;;;13.96;79.22
13612;BME280;6877;51.436;6.774;2022-08-02T02:28:36;101477.03;;;13.94;79.08
13612;BME280;6877;51.436;6.774;2022-08-02T02:31:12;101477.09;;;13.90;79.12
13612;BME280;6877;51.436;6.774;2022-08-02T02:33:43;101482.41;;;13.87;79.52
13612;BME280;6877;51.436;6.774;2022-08-02T02:36:20;101485.97;;;13.85;79.36
13612;BME280;6877;51.436;6.774;2022-08-02T02:38:55;101479.72;;;13.89;80.72
13612;BME280;6877;51.436;6.774;2022-08-02T02:41:27;101478.75;;;13.95;80.84
13612;BME280;6877;51.436;6.774;2022-08-02T02:44:01;101460.28;;;13.96;80.94
13612;BME280;6877;51.436;6.774;2022-08-02T02:46:33;101455.00;;;13.98;80.80
13612;BME280;6877;51.436;6.774;2022-08-02T02:49:09;101443.44;;;14.05;81.56
13612;BME280;6877;51.436;6.774;2022-08-02T02:51:41;101446.19;;;14.00;81.12
13612;BME280;6877;51.436;6.774;2022-08-02T02:54:15;101443.69;;;13.93;81.11
13612;BME280;6877;51.436;6.774;2022-08-02T02:56:43;101446.47;;;13.86;81.46
13612;BME280;6877;51.436;6.774;2022-08-02T02:59:15;101444.84;;;13.81;81.56
13612;BME280;6877;51.436;6.774;2022-08-02T03:01:48;101446.63;;;13.79;81.92
13612;BME280;6877;51.436;6.774;2022-08-02T03:04:20;101443.00;;;13.84;81.99
13612;BME280;6877;51.436;6.774;2022-08-02T03:06:52;101443.03;;;13.83;81.54
13612;BME280;6877;51.436;6.774;2022-08-02T03:09:24;101440.50;;;13.78;81.56
13612;BME280;6877;51.436;6.774;2022-08-02T03:11:52;101446.75;;;13.73;81.99
13612;BME280;6877;51.436;6.774;2022-08-02T03:14:20;101446.69;;;13.76;82.29
13612;BME280;6877;51.436;6.774;2022-08-02T03:16:53;101449.34;;;13.74;81.98
13612;BME280;6877;51.436;6.774;2022-08-02T03:19:24;101448.59;;;13.67;82.01
13612;BME280;6877;51.436;6.774;2022-08-02T03:21:51;101447.84;;;13.62;82.22
13612;BME280;6877;51.436;6.774;2022-08-02T03:24:23;101446.09;;;13.61;82.30
13612;BME280;6877;51.436;6.774;2022-08-02T03:26:54;101449.69;;;13.59;82.39
13612;BME280;6877;51.436;6.774;2022-08-02T03:29:26;101446.13;;;13.60;82.36
13612;BME280;6877;51.436;6.774;2022-08-02T03:31:57;101436.53;;;13.57;81.89
13612;BME280;6877;51.436;6.774;2022-08-02T03:34:29;101433.91;;;13.57;82.58
13612;BME280;6877;51.436;6.774;2022-08-02T03:37:01;101427.69;;;13.61;83.12
13612;BME280;6877;51.436;6.774;2022-08-02T03:39:33;101430.25;;;13.64;83.23
13612;BME280;6877;51.436;6.774;2022-08-02T03:42:05;101435.31;;;13.74;83.33
13612;BME280;6877;51.436;6.774;2022-08-02T03:44:38;101435.13;;;13.83;83.30
13612;BME280;6877;51.436;6.774;2022-08-02T03:47:11;101442.97;;;13.86;82.83
13612;BME280;6877;51.436;6.774;2022-08-02T03:49:43;101442.91;;;13.89;83.47
13612;BME280;6877;51.436;6.774;2022-08-02T03:52:15;101442.84;;;13.92;83.30
13612;BME280;6877;51.436;6.774;2022-08-02T03:54:41;101445.47;;;13.92;83.37
13612;BME280;6877;51.436;6.774;2022-08-02T03:57:13;101437.56;;;13.92;83.23
13612;BME280;6877;51.436;6.774;2022-08-02T03:59:45;101435.72;;;13.97;83.58
13612;BME280;6877;51.436;6.774;2022-08-02T04:02:12;101444.44;;;13.99;83.15
13612;BME280;6877;51.436;6.774;2022-08-02T04:04:44;101437.38;;;14.01;83.26
13612;BME280;6877;51.436;6.774;2022-08-02T04:07:16;101439.09;;;14.04;83.36
13612;BME280;6877;51.436;6.774;2022-08-02T04:09:48;101438.09;;;14.09;83.68
13612;BME280;6877;51.436;6.774;2022-08-02T04:12:19;101441.50;;;14.13;83.29
13612;BME280;6877;51.436;6.774;2022-08-02T04:14:51;101441.44;;;14.16;83.88
13612;BME280;6877;51.436;6.774;2022-08-02T04:17:22;101444.88;;;14.18;83.66
13612;BME280;6877;51.436;6.774;2022-08-02T04:19:59;101447.44;;;14.23;83.81
13612;BME280;6877;51.436;6.774;2022-08-02T04:22:44;101442.19;;;14.23;83.96
13612;BME280;6877;51.436;6.774;2022-08-02T04:25:20;101457.91;;;14.24;84.08
13612;BME280;6877;51.436;6.774;2022-08-02T04:27:54;101455.28;;;14.24;83.85
13612;BME280;6877;51.436;6.774;2022-08-02T04:30:27;101458.75;;;14.26;84.02
13612;BME280;6877;51.436;6.774;2022-08-02T04:32:59;101457.75;;;14.32;84.38
13612;BME280;6877;51.436;6.774;2022-08-02T04:35:31;101444.59;;;14.32;83.94
13612;BME280;6877;51.436;6.774;2022-08-02T04:38:03;101447.16;;;14.35;83.88
13612;BME280;6877;51.436;6.774;2022-08-02T04:40:35;101447.03;;;14.40;83.65
13612;BME280;6877;51.436;6.774;2022-08-02T04:43:06;101446.88;;;14.47;84.66
13612;BME280;6877;51.436;6.774;2022-08-02T04:45:33;101446.78;;;14.53;84.27
13612;BME280;6877;51.436;6.774;2022-08-02T04:48:05;101457.22;;;14.56;83.95
13612;BME280;6877;51.436;6.774;2022-08-02T04:50:37;101456.28;;;14.59;84.62
13612;BME280;6877;51.436;6.774;2022-08-02T04:53:08;101460.66;;;14.60;84.34
13612;BME280;6877;51.436;6.774;2022-08-02T04:55:40;101470.22;;;14.63;84.55
13612;BME280;6877;51.436;6.774;2022-08-02T04:58:12;101467.66;;;14.61;84.44
13612;BME280;6877;51.436;6.774;2022-08-02T05:00:44;101471.03;;;14.66;84.76
13612;BME280;6877;51.436;6.774;2022-08-02T05:03:18;101468.28;;;14.71;84.78
13612;BME280;6877;51.436;6.774;2022-08-02T05:05:49;101471.53;;;14.82;84.73
13612;BME280;6877;51.436;6.774;2022-08-02T05:08:21;101464.13;;;14.96;84.56
13612;BME280;6877;51.436;6.774;2022-08-02T05:10:52;101462.22;;;15.03;84.27
13612;BME280;6877;51.436;6.774;2022-08-02T05:13:24;101455.06;;;15.08;84.35
13612;BME280;6877;51.436;6.774;2022-08-02T05:15:56;101459.34;;;15.12;84.63
13612;BME280;6877;51.436;6.774;2022-08-02T05:18:31;101459.31;;;15.14;84.75
13612;BME280;6877;51.436;6.774;2022-08-02T05:21:03;101453.06;;;15.16;84.58
13612;BME280;6877;51.436;6.774;2022-08-02T05:23:34;101469.63;;;15.23;84.61
13612;BME280;6877;51.436;6.774;2022-08-02T05:26:05;101465.75;;;15.35;84.51
13612;BME280;6877;51.436;6.774;2022-08-02T05:28:37;101456.56;;;15.49;84.20
13612;BME280;6877;51.436;6.774;2022-08-02T05:31:08;101457.06;;;15.64;83.72
13612;BME280;6877;51.436;6.774;2022-08-02T05:33:35;101453.19;;;15.77;83.37
13612;BME280;6877;51.436;6.774;2022-08-02T05:36:06;101456.19;;;15.94;82.70
13612;BME280;6877;51.436;6.774;2022-08-02T05:38:39;101453.97;;;16.10;82.21
13612;BME280;6877;51.436;6.774;2022-08-02T05:41:10;101450.25;;;16.17;81.61
13612;BME280;6877;51.436;6.774;2022-08-02T05:43:43;101447.34;;;16.25;81.50
13612;BME280;6877;51.436;6.774;2022-08-02T05:46:14;101447.19;;;16.30;81.08
13612;BME280;6877;51.436;6.774;2022-08-02T05:48:46;101457.63;;;16.34;80.93
13612;BME280;6877;51.436;6.774;2022-08-02T06:02:29;101444.81;;;16.78;79.35
13612;BME280;6877;51.436;6.774;2022-08-02T06:05:08;101449.81;;;16.86;79.02
13612;BME280;6877;51.436;6.774;2022-08-02T06:07:43;101446.00;;;16.95;78.69
13612;BME280;6877;51.436;6.774;2022-08-02T06:10:19;101437.88;;;17.01;78.51
13612;BME280;6877;51.436;6.774;2022-08-02T06:13:08;101445.50;;;17.10;78.42
13612;BME280;6877;51.436;6.774;2022-08-02T06:15:41;101438.16;;;17.18;78.30
13612;BME280;6877;51.436;6.774;2022-08-02T06:18:14;101444.88;;;17.27;77.54
13612;BME280;6877;51.436;6.774;2022-08-02T06:20:49;101450.03;;;17.31;77.15
13612;BME280;6877;51.436;6.774;2022-08-02T06:23:21;101442.97;;;17.32;77.12
13612;BME280;6877;51.436;6.774;2022-08-02T06:25:56;101437.44;;;17.38;77.00
13612;BME280;6877;51.436;6.774;2022-08-02T06:28:24;101449.41;;;17.48;76.61
13612;BME280;6877;51.436;6.774;2022-08-02T06:30:57;101442.88;;;17.58;76.26
13612;BME280;6877;51.436;6.774;2022-08-02T06:33:24;101445.06;;;17.71;76.24
13612;BME280;6877;51.436;6.774;2022-08-02T06:38:42;101436.97;;;17.99;74.91
13612;BME280;6877;51.436;6.774;2022-08-02T06:41:12;101443.81;;;18.04;74.55
13612;BME280;6877;51.436;6.774;2022-08-02T06:44:02;101445.94;;;18.18;74.32
13612;BME280;6877;51.436;6.774;2022-08-02T06:46:34;101450.63;;;18.34;73.83
13612;BME280;6877;51.436;6.774;2022-08-02T06:49:05;101448.19;;;18.51;73.30
13612;BME280;6877;51.436;6.774;2022-08-02T06:51:37;101442.19;;;18.68;72.57
13612;BME280;6877;51.436;6.774;2022-08-02T06:54:08;101442.69;;;18.78;72.00
13612;BME280;6877;51.436;6.774;2022-08-02T06:56:40;101443.38;;;18.83;71.94
13612;BME280;6877;51.436;6.774;2022-08-02T06:59:11;101441.38;;;18.88;71.38
13612;BME280;6877;51.436;6.774;2022-08-02T07:01:43;101449.88;;;18.96;71.33
13612;BME280;6877;51.436;6.774;2022-08-02T07:04:14;101438.88;;;19.05;71.28
13612;BME280;6877;51.436;6.774;2022-08-02T07:06:41;101449.09;;;19.14;70.73
13612;BME280;6877;51.436;6.774;2022-08-02T07:09:12;101447.75;;;19.25;70.35
13612;BME280;6877;51.436;6.774;2022-08-02T07:11:44;101440.25;;;19.34;70.29
13612;BME280;6877;51.436;6.774;2022-08-02T07:14:15;101439.13;;;19.40;69.68
13612;BME280;6877;51.436;6.774;2022-08-02T07:16:42;101437.78;;;19.50;69.44
13612;BME280;6877;51.436;6.774;2022-08-02T07:19:13;101442.28;;;19.68;68.83
13612;BME280;6877;51.436;6.774;2022-08-02T07:21:44;101439.72;;;19.86;68.63
13612;BME280;6877;51.436;6.774;2022-08-02T07:24:16;101435.63;;;20.17;67.43
13612;BME280;6877;51.436;6.774;2022-08-02T07:26:49;101435.75;;;20.51;65.77
13612;BME280;6877;51.436;6.774;2022-08-02T07:29:20;101435.47;;;20.75;64.62
13612;BME280;6877;51.436;6.774;2022-08-02T07:31:52;101430.44;;;20.86;64.15
13612;BME280;6877;51.436;6.774;2022-08-02T07:34:23;101442.34;;;20.96;63.43
13612;BME280;6877;51.436;6.774;2022-08-02T07:36:50;101439.63;;;20.98;63.01
13612;BME280;6877;51.436;6.774;2022-08-02T07:39:22;101437.75;;;21.00;63.44
13612;BME280;6877;51.436;6.774;2022-08-02T07:41:54;101437.50;;;21.04;63.13
13612;BME280;6877;51.436;6.774;2022-08-02T07:44:25;101439.69;;;21.14;62.49
13612;BME280;6877;51.436;6.774;2022-08-02T07:46:56;101427.78;;;21.21;61.51
13612;BME280;6877;51.436;6.774;2022-08-02T07:49:29;101433.28;;;21.35;61.00
13612;BME280;6877;51.436;6.774;2022-08-02T07:52:00;101424.03;;;21.42;60.06
13612;BME280;6877;51.436;6.774;2022-08-02T07:54:32;101419.38;;;21.46;60.15
13612;BME280;6877;51.436;6.774;2022-08-02T07:57:04;101418.03;;;21.55;59.70
13612;BME280;6877;51.436;6.774;2022-08-02T07:59:35;101414.28;;;21.74;58.57
13612;BME280;6877;51.436;6.774;2022-08-02T08:02:06;101415.59;;;21.99;57.09
13612;BME280;6877;51.436;6.774;2022-08-02T08:04:38;101411.84;;;22.19;56.69
13612;BME280;6877;51.436;6.774;2022-08-02T08:07:09;101415.53;;;22.48;55.33
13612;BME280;6877;51.436;6.774;2022-08-02T08:09:42;101419.50;;;23.01;54.04
13612;BME280;6877;51.436;6.774;2022-08-02T08:12:14;101406.50;;;23.82;52.42
13612;BME280;6877;51.436;6.774;2022-08-02T08:14:46;101405.94;;;25.26;48.14
13612;BME280;6877;51.436;6.774;2022-08-02T08:17:13;101403.34;;;27.07;43.99
13612;BME280;6877;51.436;6.774;2022-08-02T08:19:44;101409.66;;;29.15;40.05
13612;BME280;6877;51.436;6.774;2022-08-02T08:22:13;101402.25;;;30.18;36.68
13612;BME280;6877;51.436;6.774;2022-08-02T08:24:44;101397.81;;;31.34;34.57
13612;BME280;6877;51.436;6.774;2022-08-02T08:27:17;101409.56;;;33.57;31.46
13612;BME280;6877;51.436;6.774;2022-08-02T08:29:49;101402.38;;;34.82;28.55
13612;BME280;6877;51.436;6.774;2022-08-02T08:32:21;101395.41;;;35.91;26.88
13612;BME280;6877;51.436;6.774;2022-08-02T08:34:52;101399.09;;;36.98;25.82
13612;BME280;6877;51.436;6.774;2022-08-02T08:37:24;101401.41;;;35.86;26.56
13612;BME280;6877;51.436;6.774;2022-08-02T08:39:55;101394.69;;;35.02;27.65
13612;BME280;6877;51.436;6.774;2022-08-02T08:42:29;101397.97;;;36.24;25.92
13612;BME280;6877;51.436;6.774;2022-08-02T08:45:01;101399.81;;;37.81;24.12
13612;BME280;6877;51.436;6.774;2022-08-02T08:50:16;101396.59;;;40.70;21.20
13612;BME280;6877;51.436;6.774;2022-08-02T08:53:03;101397.28;;;41.51;19.60
13612;BME280;6877;51.436;6.774;2022-08-02T08:55:36;101392.84;;;41.56;19.46
13612;BME280;6877;51.436;6.774;2022-08-02T08:58:07;101398.69;;;40.68;20.07
13612;BME280;6877;51.436;6.774;2022-08-02T09:00:39;101397.03;;;40.67;20.33
13612;BME280;6877;51.436;6.774;2022-08-02T09:03:11;101388.00;;;41.45;19.44
13612;BME280;6877;51.436;6.774;2022-08-02T09:05:43;101382.09;;;41.86;19.13
13612;BME280;6877;51.436;6.774;2022-08-02T09:08:17;101384.44;;;42.21;18.32
13612;BME280;6877;51.436;6.774;2022-08-02T09:10:45;101387.06;;;42.41;18.56
13612;BME280;6877;51.436;6.774;2022-08-02T09:15:58;101380.50;;;42.10;18.82
13612;BME280;6877;51.436;6.774;2022-08-02T09:18:37;101376.72;;;42.05;18.47
13612;BME280;6877;51.436;6.774;2022-08-02T09:21:10;101378.81;;;42.66;17.65
13612;BME280;6877;51.436;6.774;2022-08-02T09:23:51;101377.31;;;42.70;17.82
13612;BME280;6877;51.436;6.774;2022-08-02T09:26:24;101374.50;;;43.50;17.36
13612;BME280;6877;51.436;6.774;2022-08-02T09:29:00;101373.97;;;44.74;16.42
13612;BME280;6877;51.436;6.774;2022-08-02T09:31:32;101384.47;;;44.00;16.54
13612;BME280;6877;51.436;6.774;2022-08-02T09:34:04;101375.13;;;42.22;18.16
13612;BME280;6877;51.436;6.774;2022-08-02T09:36:43;101374.38;;;42.08;18.56
13612;BME280;6877;51.436;6.774;2022-08-02T09:39:16;101371.72;;;41.95;18.76
13612;BME280;6877;51.436;6.774;2022-08-02T09:41:47;101368.06;;;40.38;19.97
13612;BME280;6877;51.436;6.774;2022-08-02T09:44:19;101369.13;;;40.50;20.05
13612;BME280;6877;51.436;6.774;2022-08-02T09:46:50;101361.03;;;41.22;19.06
13612;BME280;6877;51.436;6.774;2022-08-02T09:49:22;101373.28;;;40.13;20.16
13612;BME280;6877;51.436;6.774;2022-08-02T09:51:53;101368.88;;;39.51;20.90
13612;BME280;6877;51.436;6.774;2022-08-02T09:54:28;101361.03;;;37.71;22.80
13612;BME280;6877;51.436;6.774;2022-08-02T09:57:00;101367.00;;;37.60;23.00
13612;BME280;6877;51.436;6.774;2022-08-02T09:59:27;101361.63;;;38.02;22.70
13612;BME280;6877;51.436;6.774;2022-08-02T10:01:59;101351.16;;;37.70;23.15
13612;BME280;6877;51.436;6.774;2022-08-02T10:04:31;101355.63;;;37.56;23.48
13612;BME280;6877;51.436;6.774;2022-08-02T10:07:03;101354.44;;;36.38;24.65
13612;BME280;6877;51.436;6.774;2022-08-02T10:09:34;101362.91;;;35.11;26.67
13612;BME280;6877;51.436;6.774;2022-08-02T10:12:06;101362.63;;;33.65;28.83
13612;BME280;6877;51.436;6.774;2022-08-02T10:14:38;101359.13;;;33.97;27.92
13612;BME280;6877;51.436;6.774;2022-08-02T10:17:10;101350.38;;;33.53;28.53
13612;BME280;6877;51.436;6.774;2022-08-02T10:19:44;101355.00;;;33.34;28.96
13612;BME280;6877;51.436;6.774;2022-08-02T10:22:16;101347.00;;;33.67;28.66
13612;BME280;6877;51.436;6.774;2022-08-02T10:24:44;101346.41;;;32.87;29.83
13612;BME280;6877;51.436;6.774;2022-08-02T10:27:17;101347.63;;;32.92;29.97
13612;BME280;6877;51.436;6.774;2022-08-02T10:29:55;101345.00;;;35.24;26.87
13612;BME280;6877;51.436;6.774;2022-08-02T10:32:42;101335.84;;;35.17;25.88
13612;BME280;6877;51.436;6.774;2022-08-02T10:35:20;101331.31;;;33.10;28.89
13612;BME280;6877;51.436;6.774;2022-08-02T10:37:59;101328.84;;;33.25;28.75
13612;BME280;6877;51.436;6.774;2022-08-02T10:40:51;101330.88;;;34.65;26.76
13612;BME280;6877;51.436;6.774;2022-08-02T10:46:33;101332.19;;;34.04;27.63
13612;BME280;6877;51.436;6.774;2022-08-02T10:49:19;101320.47;;;33.10;28.81
13612;BME280;6877;51.436;6.774;2022-08-02T10:54:28;101319.66;;;34.03;27.33
13612;BME280;6877;51.436;6.774;2022-08-02T10:57:13;101314.59;;;35.60;25.30
13612;BME280;6877;51.436;6.774;2022-08-02T10:59:41;101320.25;;;36.51;24.07
13612;BME280;6877;51.436;6.774;2022-08-02T11:02:08;101325.50;;;37.49;22.68
13612;BME280;6877;51.436;6.774;2022-08-02T11:07:14;101322.75;;;36.90;23.08
13612;BME280;6877;51.436;6.774;2022-08-02T11:09:48;101318.09;;;36.99;22.60
13612;BME280;6877;51.436;6.774;2022-08-02T11:12:20;101314.91;;;36.19;23.56
13612;BME280;6877;51.436;6.774;2022-08-02T11:15:01;101319.59;;;35.09;25.06
13612;BME280;6877;51.436;6.774;2022-08-02T11:17:52;101307.00;;;33.61;27.08
13612;BME280;6877;51.436;6.774;2022-08-02T11:20:25;101314.09;;;33.62;27.36
13612;BME280;6877;51.436;6.774;2022-08-02T11:29:02;101316.94;;;34.27;26.76
13612;BME280;6877;51.436;6.774;2022-08-02T11:31:39;101309.50;;;32.94;28.49
13612;BME280;6877;51.436;6.774;2022-08-02T11:34:11;101318.38;;;32.34;29.55
13612;BME280;6877;51.436;6.774;2022-08-02T11:36:46;101308.56;;;32.15;30.21
13612;BME280;6877;51.436;6.774;2022-08-02T11:39:21;101315.38;;;32.37;29.21
13612;BME280;6877;51.436;6.774;2022-08-02T11:41:57;101311.75;;;32.46;29.49
13612;BME280;6877;51.436;6.774;2022-08-02T11:44:37;101299.81;;;32.57;29.35
13612;BME280;6877;51.436;6.774;2022-08-02T11:47:09;101303.09;;;31.89;30.44
13612;BME280;6877;51.436;6.774;2022-08-02T11:49:40;101304.78;;;31.90;29.98
13612;BME280;6877;51.436;6.774;2022-08-02T11:52:08;101302.28;;;31.79;30.01
13612;BME280;6877;51.436;6.774;2022-08-02T11:54:41;101293.13;;;31.44;30.72
13612;BME280;6877;51.436;6.774;2022-08-02T11:57:14;101296.25;;;31.12;30.97
13612;BME280;6877;51.436;6.774;2022-08-02T11:59:56;101295.25;;;31.13;31.21
13612;BME280;6877;51.436;6.774;2022-08-02T12:02:29;101298.06;;;31.11;31.04
13612;BME280;6877;51.436;6.774;2022-08-02T12:05:03;101297.06;;;30.85;31.56
13612;BME280;6877;51.436;6.774;2022-08-02T12:07:37;101289.41;;;30.61;31.71
13612;BME280;6877;51.436;6.774;2022-08-02T12:10:06;101295.13;;;30.48;32.20
13612;BME280;6877;51.436;6.774;2022-08-02T12:15:14;101296.84;;;30.49;32.15
13612;BME280;6877;51.436;6.774;2022-08-02T12:17:46;101290.72;;;30.47;31.49
13612;BME280;6877;51.436;6.774;2022-08-02T12:20:35;101291.75;;;30.36;31.81
13612;BME280;6877;51.436;6.774;2022-08-02T12:23:07;101290.28;;;30.42;31.80
13612;BME280;6877;51.436;6.774;2022-08-02T12:25:39;101284.59;;;30.45;32.24
13612;BME280;6877;51.436;6.774;2022-08-02T12:28:15;101272.56;;;30.77;32.27
13612;BME280;6877;51.436;6.774;2022-08-02T12:30:55;101283.38;;;30.96;31.84
13612;BME280;6877;51.436;6.774;2022-08-02T12:33:47;101279.00;;;30.76;32.40
13612;BME280;6877;51.436;6.774;2022-08-02T12:36:22;101289.59;;;30.40;33.17
13612;BME280;6877;51.436;6.774;2022-08-02T12:38:54;101284.88;;;30.42;33.28
13612;BME280;6877;51.436;6.774;2022-08-02T12:41:28;101292.69;;;30.45;33.14
13612;BME280;6877;51.436;6.774;2022-08-02T12:43:59;101293.28;;;30.39;33.07
13612;BME280;6877;51.436;6.774;2022-08-02T12:46:26;101284.91;;;30.32;32.89
13612;BME280;6877;51.436;6.774;2022-08-02T12:48:58;101288.88;;;30.18;33.11
13612;BME280;6877;51.436;6.774;2022-08-02T12:51:26;101290.31;;;30.22;33.08
13612;BME280;6877;51.436;6.774;2022-08-02T12:54:16;101280.63;;;30.10;33.38
13612;BME280;6877;51.436;6.774;2022-08-02T12:56:49;101272.97;;;30.35;33.20
13612;BME280;6877;51.436;6.774;2022-08-02T12:59:38;101275.53;;;30.46;32.97
13612;BME280;6877;51.436;6.774;2022-08-02T13:02:11;101277.50;;;30.44;32.84
13612;BME280;6877;51.436;6.774;2022-08-02T13:04:43;101276.25;;;30.29;33.09
13612;BME280;6877;51.436;6.774;2022-08-02T13:11:16;101273.44;;;30.20;33.56
13612;BME280;6877;51.436;6.774;2022-08-02T13:14:07;101259.59;;;30.43;32.99
13612;BME280;6877;51.436;6.774;2022-08-02T13:16:34;101250.94;;;30.49;32.61
13612;BME280;6877;51.436;6.774;2022-08-02T13:19:05;101256.78;;;30.35;32.03
13612;BME280;6877;51.436;6.774;2022-08-02T13:21:31;101236.00;;;30.35;31.50
13612;BME280;6877;51.436;6.774;2022-08-02T13:24:03;101242.84;;;30.30;31.49
13612;BME280;6877;51.436;6.774;2022-08-02T13:26:30;101255.09;;;30.24;31.81
13612;BME280;6877;51.436;6.774;2022-08-02T13:36:39;101241.72;;;30.22;31.80
13612;BME280;6877;51.436;6.774;2022-08-02T13:39:11;101239.75;;;30.24;31.86
13612;BME280;6877;51.436;6.774;2022-08-02T13:41:42;101234.03;;;30.18;31.59
13612;BME280;6877;51.436;6.774;2022-08-02T13:44:14;101240.41;;;30.17;31.46
13612;BME280;6877;51.436;6.774;2022-08-02T13:46:46;101245.69;;;30.09;32.16
13612;BME280;6877;51.436;6.774;2022-08-02T13:49:18;101246.69;;;29.98;32.06
13612;BME280;6877;51.436;6.774;2022-08-02T13:51:50;101228.94;;;29.95;32.11
13612;BME280;6877;51.436;6.774;2022-08-02T13:54:21;101234.03;;;30.18;32.00
13612;BME280;6877;51.436;6.774;2022-08-02T13:56:53;101225.09;;;30.17;32.24
13612;BME280;6877;51.436;6.774;2022-08-02T13:59:24;101231.47;;;30.36;31.83
13612;BME280;6877;51.436;6.774;2022-08-02T14:01:56;101224.91;;;30.38;31.83
13612;BME280;6877;51.436;6.774;2022-08-02T14:04:28;101229.50;;;29.99;32.51
13612;BME280;6877;51.436;6.774;2022-08-02T14:07:00;101219.13;;;29.75;33.11
13612;BME280;6877;51.436;6.774;2022-08-02T14:09:35;101221.84;;;29.85;33.06
13612;BME280;6877;51.436;6.774;2022-08-02T14:12:06;101224.69;;;30.02;32.89
13612;BME280;6877;51.436;6.774;2022-08-02T14:14:39;101216.41;;;30.04;32.83
13612;BME280;6877;51.436;6.774;2022-08-02T14:17:11;101224.25;;;29.97;33.20
13612;BME280;6877;51.436;6.774;2022-08-02T14:19:43;101210.03;;;30.05;33.30
13612;BME280;6877;51.436;6.774;2022-08-02T14:22:15;101215.84;;;30.10;33.15
13612;BME280;6877;51.436;6.774;2022-08-02T14:24:47;101212.59;;;30.07;32.90
13612;BME280;6877;51.436;6.774;2022-08-02T14:27:18;101209.88;;;30.16;32.76
13612;BME280;6877;51.436;6.774;2022-08-02T14:29:50;101205.66;;;30.23;32.31